Blagovescensk, Russia
Current Conditions -  °F | °C
As of 11:00 PM on Wednesday 28 Jan 2015 (Local Time) from UHBB Reporting Station
Clear Clear  
Wind Chill: -10°   Ceiling: Unl
Heat Index:   Visibility: 6mi
Dew Point: -8°   Wind: 4mph
Humidity: 72%   Direction: 230°SW
Pressure: 30.21"   Gusts: NA
Location:  50.25°N, 127.57°E
Report Text: UHBB 281400Z 23002MPS CAVOK M18/M22 Q1023 NOSIG RMK QFE749/099936410260
Loading
Personal Weather Stations






























Interactive Weather Map New forecast layout! Learn more

10-Day Weather Forecast

Advertisements
Track Severe Weather on mobile